Aeroporto :
LOGIN :

Iscrizione | Disclaimer

   EN    FR    IT 

 










Sommario :    VFR   VFR Marginale   IFR   IFR Intensivo   IFR Molto Intensivo
Visibilità : 
Base nubi : 
>= 8 km
>= 3000ft
5 / 8 km
1000 / 3000 ft
1500m / 5 km
500 / 1000 ft
800 / 1500m
200 / 500 ft
< 800m
< 200 ft
Simboli :   Temporali  Nebbia  Neve Forte  Precipitazioni Forti  Vento > 20 kt
SIGMETs :   Varie  Temporali  Ghiacco  Turbolenza  Onda orograficha  Ceneri Vulcaniche






- Altitudine del aeroporto : 545 ft
- Codice IATA : PZY


LZPP - Piešťany

ULTIMO METAR :
  • 131430Z 34005KT 280V050 6000 RA OVC009 06/04 Q1001

METARs OBSOLETI :
  • 131414Z 35005KT 280V040 4000 RA BR OVC009 06/05 Q1001
  • 131400Z 32007KT 290V350 2000 +RA BR OVC009 05/04 Q1002
  • 131335Z 32007KT 280V360 2000 +RA BR OVC008 05/04 Q1001
  • 131300Z 29007KT 260V340 2000 RA BR BKN008 OVC015 06/05 Q1000
  • 131230Z 23005KT 170V260 5000 -RA BR OVC010 08/07 Q0999 RERA
  • 131210Z 26007KT 230V310 4000 -RA BR SCT010 BKN036 BKN046 09/08 Q1000 RERA
  • 131200Z 26005KT 180V300 2000 +RA BKN020 10/08 Q0999
  • 131145Z 27008KT 9999 RA FEW011 BKN025 10/08 Q0999
  • 131130Z 24008KT 210V270 9999 SCT027 BKN045 12/10 Q1000

TAF TAF LZPP
Valido dal 13 a 15 ore il 14 a 00 ore UTC


131400Z 1315/1400 30008KT 9999 -RA SCT012 OVC020
PROB40
TEMPO 1315/1318 28018G28KT 2000 SHRA BKN005 SCT015CB
BECMG 1318/1320 33005KT NSW



MetMap, La meteo Aeronautica in un colpo d'occhio ! - Copyright ORBIFLY Dicembre 2007 - Disclaimer

ORBIFLY MET'MAP TEAM :

Programmazione e sviluppo : Alexandra Zaïnal
Concezione e sviluppo : Baudouin d'Aumeries
Co-Programmazione e sviluppo : Marc-Olivier Méhu
Supporto tecnico e logistico : Manuel Goepfert
Aiuto per la traduzione : Arnaldo La Scala

Contatto : metmap@orbifly.com




FONTI E CREDITI :

   NOAA